sensor_id;sensor_type;location;lat;lon;timestamp;temperature;humidity
8099;DHT22;4092;47.876;9.372;2023-04-01T00:02:02;5.30;99.90
8099;DHT22;4092;47.876;9.372;2023-04-01T00:04:29;5.30;99.90
8099;DHT22;4092;47.876;9.372;2023-04-01T00:06:56;5.30;99.90
8099;DHT22;4092;47.876;9.372;2023-04-01T00:09:23;5.20;99.90
8099;DHT22;4092;47.876;9.372;2023-04-01T00:11:50;5.30;99.90
8099;DHT22;4092;47.876;9.372;2023-04-01T00:14:17;5.30;99.90
8099;DHT22;4092;47.876;9.372;2023-04-01T00:16:44;5.30;99.90
8099;DHT22;4092;47.876;9.372;2023-04-01T00:19:13;5.30;99.90
8099;DHT22;4092;47.876;9.372;2023-04-01T00:21:40;5.30;99.90
8099;DHT22;4092;47.876;9.372;2023-04-01T00:24:07;5.30;99.90
8099;DHT22;4092;47.876;9.372;2023-04-01T00:26:34;5.30;99.90
8099;DHT22;4092;47.876;9.372;2023-04-01T00:29:01;5.30;99.90
8099;DHT22;4092;47.876;9.372;2023-04-01T00:31:28;5.20;99.90
8099;DHT22;4092;47.876;9.372;2023-04-01T00:33:55;5.30;99.90
8099;DHT22;4092;47.876;9.372;2023-04-01T00:36:24;5.20;99.90
8099;DHT22;4092;47.876;9.372;2023-04-01T00:38:51;5.20;99.90
8099;DHT22;4092;47.876;9.372;2023-04-01T00:41:19;5.20;99.90
8099;DHT22;4092;47.876;9.372;2023-04-01T00:43:49;5.10;99.90
8099;DHT22;4092;47.876;9.372;2023-04-01T00:46:17;5.10;99.90
8099;DHT22;4092;47.876;9.372;2023-04-01T00:48:47;5.00;99.90
8099;DHT22;4092;47.876;9.372;2023-04-01T00:51:18;5.00;99.90
8099;DHT22;4092;47.876;9.372;2023-04-01T00:53:50;5.00;99.90
8099;DHT22;4092;47.876;9.372;2023-04-01T00:56:21;4.90;99.90
8099;DHT22;4092;47.876;9.372;2023-04-01T00:58:51;4.90;99.90
8099;DHT22;4092;47.876;9.372;2023-04-01T01:01:22;4.90;99.90
8099;DHT22;4092;47.876;9.372;2023-04-01T01:03:50;4.80;99.90
8099;DHT22;4092;47.876;9.372;2023-04-01T01:06:25;4.80;99.90
8099;DHT22;4092;47.876;9.372;2023-04-01T01:09:11;4.70;99.90
8099;DHT22;4092;47.876;9.372;2023-04-01T01:11:43;4.70;99.90
8099;DHT22;4092;47.876;9.372;2023-04-01T01:14:21;4.70;99.90
8099;DHT22;4092;47.876;9.372;2023-04-01T01:16:54;4.60;99.90
8099;DHT22;4092;47.876;9.372;2023-04-01T01:22:45;4.60;99.90
8099;DHT22;4092;47.876;9.372;2023-04-01T01:25:32;4.60;99.90
8099;DHT22;4092;47.876;9.372;2023-04-01T01:30:57;4.60;99.90
8099;DHT22;4092;47.876;9.372;2023-04-01T01:33:39;4.70;99.90
8099;DHT22;4092;47.876;9.372;2023-04-01T01:36:12;4.70;99.90
8099;DHT22;4092;47.876;9.372;2023-04-01T01:38:40;4.70;99.90
8099;DHT22;4092;47.876;9.372;2023-04-01T01:41:09;4.70;99.90
8099;DHT22;4092;47.876;9.372;2023-04-01T01:43:38;4.60;99.90
8099;DHT22;4092;47.876;9.372;2023-04-01T01:46:11;4.50;99.90
8099;DHT22;4092;47.876;9.372;2023-04-01T01:48:41;4.50;99.90
8099;DHT22;4092;47.876;9.372;2023-04-01T01:51:11;4.50;99.90
8099;DHT22;4092;47.876;9.372;2023-04-01T01:53:38;4.50;99.90
8099;DHT22;4092;47.876;9.372;2023-04-01T01:56:05;4.50;99.90
8099;DHT22;4092;47.876;9.372;2023-04-01T01:58:33;4.50;99.90
8099;DHT22;4092;47.876;9.372;2023-04-01T02:01:08;4.50;99.90
8099;DHT22;4092;47.876;9.372;2023-04-01T02:03:39;4.50;99.90
8099;DHT22;4092;47.876;9.372;2023-04-01T02:06:09;4.50;99.90
8099;DHT22;4092;47.876;9.372;2023-04-01T02:08:39;4.50;99.90
8099;DHT22;4092;47.876;9.372;2023-04-01T02:11:09;4.50;99.90
8099;DHT22;4092;47.876;9.372;2023-04-01T02:13:40;4.50;99.90
8099;DHT22;4092;47.876;9.372;2023-04-01T02:16:12;4.50;99.90
8099;DHT22;4092;47.876;9.372;2023-04-01T02:18:40;4.50;99.90
8099;DHT22;4092;47.876;9.372;2023-04-01T02:21:10;4.50;99.90
8099;DHT22;4092;47.876;9.372;2023-04-01T02:23:38;4.50;99.90
8099;DHT22;4092;47.876;9.372;2023-04-01T02:26:06;4.50;99.90
8099;DHT22;4092;47.876;9.372;2023-04-01T02:28:36;4.60;99.90
8099;DHT22;4092;47.876;9.372;2023-04-01T02:31:05;4.60;99.90
8099;DHT22;4092;47.876;9.372;2023-04-01T02:33:33;4.60;99.90
8099;DHT22;4092;47.876;9.372;2023-04-01T02:36:01;4.60;99.90
8099;DHT22;4092;47.876;9.372;2023-04-01T02:38:29;4.60;99.90
8099;DHT22;4092;47.876;9.372;2023-04-01T02:40:58;4.60;99.90
8099;DHT22;4092;47.876;9.372;2023-04-01T02:43:25;4.60;99.90
8099;DHT22;4092;47.876;9.372;2023-04-01T02:45:53;4.60;99.90
8099;DHT22;4092;47.876;9.372;2023-04-01T02:48:20;4.60;99.90
8099;DHT22;4092;47.876;9.372;2023-04-01T02:50:47;4.60;99.90
8099;DHT22;4092;47.876;9.372;2023-04-01T02:53:14;4.60;99.90
8099;DHT22;4092;47.876;9.372;2023-04-01T02:55:42;4.70;99.90
8099;DHT22;4092;47.876;9.372;2023-04-01T02:58:10;4.70;99.90
8099;DHT22;4092;47.876;9.372;2023-04-01T03:00:37;4.70;99.90
8099;DHT22;4092;47.876;9.372;2023-04-01T03:03:04;4.70;99.90
8099;DHT22;4092;47.876;9.372;2023-04-01T03:05:31;4.70;99.90
8099;DHT22;4092;47.876;9.372;2023-04-01T03:07:58;4.70;99.90
8099;DHT22;4092;47.876;9.372;2023-04-01T03:10:25;4.70;99.90
8099;DHT22;4092;47.876;9.372;2023-04-01T03:12:53;4.80;99.90
8099;DHT22;4092;47.876;9.372;2023-04-01T03:15:20;4.70;99.90
8099;DHT22;4092;47.876;9.372;2023-04-01T03:17:47;4.70;99.90
8099;DHT22;4092;47.876;9.372;2023-04-01T03:20:15;4.70;99.90
8099;DHT22;4092;47.876;9.372;2023-04-01T03:22:42;4.70;99.90
8099;DHT22;4092;47.876;9.372;2023-04-01T03:25:10;4.70;99.90
8099;DHT22;4092;47.876;9.372;2023-04-01T03:27:37;4.70;99.90
8099;DHT22;4092;47.876;9.372;2023-04-01T03:30:07;4.70;99.90
8099;DHT22;4092;47.876;9.372;2023-04-01T03:32:35;4.70;99.90
8099;DHT22;4092;47.876;9.372;2023-04-01T03:35:02;4.80;99.90
8099;DHT22;4092;47.876;9.372;2023-04-01T03:37:29;4.80;99.90
8099;DHT22;4092;47.876;9.372;2023-04-01T03:39:56;4.70;99.90
8099;DHT22;4092;47.876;9.372;2023-04-01T03:42:23;4.70;99.90
8099;DHT22;4092;47.876;9.372;2023-04-01T03:44:49;4.70;99.90
8099;DHT22;4092;47.876;9.372;2023-04-01T03:47:18;4.80;99.90
8099;DHT22;4092;47.876;9.372;2023-04-01T03:49:45;4.70;99.90
8099;DHT22;4092;47.876;9.372;2023-04-01T03:52:12;4.70;99.90
8099;DHT22;4092;47.876;9.372;2023-04-01T03:54:39;4.70;99.90
8099;DHT22;4092;47.876;9.372;2023-04-01T03:57:06;4.70;99.90
8099;DHT22;4092;47.876;9.372;2023-04-01T03:59:33;4.70;99.90
8099;DHT22;4092;47.876;9.372;2023-04-01T04:02:00;4.70;99.90
8099;DHT22;4092;47.876;9.372;2023-04-01T04:04:29;4.70;99.90
8099;DHT22;4092;47.876;9.372;2023-04-01T04:06:56;4.70;99.90
8099;DHT22;4092;47.876;9.372;2023-04-01T04:09:23;4.70;99.90
8099;DHT22;4092;47.876;9.372;2023-04-01T04:11:51;4.70;99.90
8099;DHT22;4092;47.876;9.372;2023-04-01T04:14:17;4.70;99.90
8099;DHT22;4092;47.876;9.372;2023-04-01T04:16:44;4.70;99.90
8099;DHT22;4092;47.876;9.372;2023-04-01T04:19:11;4.70;99.90
8099;DHT22;4092;47.876;9.372;2023-04-01T04:21:41;4.70;99.90
8099;DHT22;4092;47.876;9.372;2023-04-01T04:24:08;4.70;99.90
8099;DHT22;4092;47.876;9.372;2023-04-01T04:26:36;4.70;99.90
8099;DHT22;4092;47.876;9.372;2023-04-01T04:29:03;4.70;99.90
8099;DHT22;4092;47.876;9.372;2023-04-01T04:31:30;4.70;99.90
8099;DHT22;4092;47.876;9.372;2023-04-01T04:33:59;4.70;99.90
8099;DHT22;4092;47.876;9.372;2023-04-01T04:36:26;4.80;99.90
8099;DHT22;4092;47.876;9.372;2023-04-01T04:38:54;4.70;99.90
8099;DHT22;4092;47.876;9.372;2023-04-01T04:41:23;4.70;99.90
8099;DHT22;4092;47.876;9.372;2023-04-01T04:43:53;4.80;99.90
8099;DHT22;4092;47.876;9.372;2023-04-01T04:46:20;4.80;99.90
8099;DHT22;4092;47.876;9.372;2023-04-01T04:48:48;4.80;99.90
8099;DHT22;4092;47.876;9.372;2023-04-01T04:51:15;4.80;99.90
8099;DHT22;4092;47.876;9.372;2023-04-01T04:53:43;4.80;99.90
8099;DHT22;4092;47.876;9.372;2023-04-01T04:56:11;4.80;99.90
8099;DHT22;4092;47.876;9.372;2023-04-01T04:58:39;4.80;99.90
8099;DHT22;4092;47.876;9.372;2023-04-01T05:01:08;4.70;99.90
8099;DHT22;4092;47.876;9.372;2023-04-01T05:03:36;4.70;99.90
8099;DHT22;4092;47.876;9.372;2023-04-01T05:06:04;4.70;99.90
8099;DHT22;4092;47.876;9.372;2023-04-01T05:08:31;4.70;99.90
8099;DHT22;4092;47.876;9.372;2023-04-01T05:10:59;4.60;99.90
8099;DHT22;4092;47.876;9.372;2023-04-01T05:13:28;4.70;99.90
8099;DHT22;4092;47.876;9.372;2023-04-01T05:15:55;4.70;99.90
8099;DHT22;4092;47.876;9.372;2023-04-01T05:18:22;4.70;99.90
8099;DHT22;4092;47.876;9.372;2023-04-01T05:20:50;4.60;99.90
8099;DHT22;4092;47.876;9.372;2023-04-01T05:23:19;4.60;99.90
8099;DHT22;4092;47.876;9.372;2023-04-01T05:25:46;4.60;99.90
8099;DHT22;4092;47.876;9.372;2023-04-01T05:28:13;4.60;99.90
8099;DHT22;4092;47.876;9.372;2023-04-01T05:30:42;4.60;99.90
8099;DHT22;4092;47.876;9.372;2023-04-01T05:33:10;4.50;99.90
8099;DHT22;4092;47.876;9.372;2023-04-01T05:35:38;4.50;99.90
8099;DHT22;4092;47.876;9.372;2023-04-01T05:38:05;4.50;99.90
8099;DHT22;4092;47.876;9.372;2023-04-01T05:40:32;4.50;99.90
8099;DHT22;4092;47.876;9.372;2023-04-01T05:42:59;4.50;99.90
8099;DHT22;4092;47.876;9.372;2023-04-01T05:45:27;4.50;99.90
8099;DHT22;4092;47.876;9.372;2023-04-01T05:47:55;4.40;99.90
8099;DHT22;4092;47.876;9.372;2023-04-01T05:50:22;4.40;99.90
8099;DHT22;4092;47.876;9.372;2023-04-01T05:52:50;4.40;99.90
8099;DHT22;4092;47.876;9.372;2023-04-01T05:55:17;4.40;99.90
8099;DHT22;4092;47.876;9.372;2023-04-01T05:57:45;4.40;99.90
8099;DHT22;4092;47.876;9.372;2023-04-01T06:00:14;4.40;99.90
8099;DHT22;4092;47.876;9.372;2023-04-01T06:02:42;4.40;99.90
8099;DHT22;4092;47.876;9.372;2023-04-01T06:05:17;4.40;99.90
8099;DHT22;4092;47.876;9.372;2023-04-01T06:07:44;4.50;99.90
8099;DHT22;4092;47.876;9.372;2023-04-01T06:10:17;4.50;99.90
8099;DHT22;4092;47.876;9.372;2023-04-01T06:12:58;4.50;99.90
8099;DHT22;4092;47.876;9.372;2023-04-01T06:15:36;4.50;99.90
8099;DHT22;4092;47.876;9.372;2023-04-01T06:18:21;4.50;99.90
8099;DHT22;4092;47.876;9.372;2023-04-01T06:21:00;4.50;99.90
8099;DHT22;4092;47.876;9.372;2023-04-01T06:23:43;4.50;99.90
8099;DHT22;4092;47.876;9.372;2023-04-01T06:26:21;4.50;99.90
8099;DHT22;4092;47.876;9.372;2023-04-01T06:29:16;4.50;99.90
8099;DHT22;4092;47.876;9.372;2023-04-01T06:38:03;4.60;99.90
8099;DHT22;4092;47.876;9.372;2023-04-01T06:41:01;4.70;99.90
8099;DHT22;4092;47.876;9.372;2023-04-01T06:43:40;4.70;99.90
8099;DHT22;4092;47.876;9.372;2023-04-01T06:46:18;4.70;99.90
8099;DHT22;4092;47.876;9.372;2023-04-01T06:49:02;4.70;99.90
8099;DHT22;4092;47.876;9.372;2023-04-01T06:51:36;4.80;99.90
8099;DHT22;4092;47.876;9.372;2023-04-01T06:54:10;4.80;99.90
8099;DHT22;4092;47.876;9.372;2023-04-01T06:56:41;4.80;99.90
8099;DHT22;4092;47.876;9.372;2023-04-01T06:59:12;4.90;99.90
8099;DHT22;4092;47.876;9.372;2023-04-01T07:01:44;5.00;99.90
8099;DHT22;4092;47.876;9.372;2023-04-01T07:04:15;5.00;99.90
8099;DHT22;4092;47.876;9.372;2023-04-01T07:06:47;5.00;99.90
8099;DHT22;4092;47.876;9.372;2023-04-01T07:09:19;5.10;99.90
8099;DHT22;4092;47.876;9.372;2023-04-01T07:11:46;5.10;99.90
8099;DHT22;4092;47.876;9.372;2023-04-01T07:14:19;5.10;99.90
8099;DHT22;4092;47.876;9.372;2023-04-01T07:16:49;5.10;99.90
8099;DHT22;4092;47.876;9.372;2023-04-01T07:19:24;5.20;99.90
8099;DHT22;4092;47.876;9.372;2023-04-01T07:21:55;5.20;99.90
8099;DHT22;4092;47.876;9.372;2023-04-01T07:24:27;5.20;99.90
8099;DHT22;4092;47.876;9.372;2023-04-01T07:26:57;5.20;99.90
8099;DHT22;4092;47.876;9.372;2023-04-01T07:29:25;5.20;99.90
8099;DHT22;4092;47.876;9.372;2023-04-01T07:32:06;5.20;99.90
8099;DHT22;4092;47.876;9.372;2023-04-01T07:34:39;5.30;99.90
8099;DHT22;4092;47.876;9.372;2023-04-01T07:37:12;5.30;99.90
8099;DHT22;4092;47.876;9.372;2023-04-01T07:39:48;5.30;99.90
8099;DHT22;4092;47.876;9.372;2023-04-01T07:42:25;5.30;99.90
8099;DHT22;4092;47.876;9.372;2023-04-01T07:45:01;5.30;99.90
8099;DHT22;4092;47.876;9.372;2023-04-01T07:47:40;5.30;99.90
8099;DHT22;4092;47.876;9.372;2023-04-01T07:50:16;5.30;99.90
8099;DHT22;4092;47.876;9.372;2023-04-01T07:52:53;5.40;99.90
8099;DHT22;4092;47.876;9.372;2023-04-01T07:55:25;5.40;99.90
8099;DHT22;4092;47.876;9.372;2023-04-01T07:58:03;5.40;99.90
8099;DHT22;4092;47.876;9.372;2023-04-01T08:00:37;5.40;99.90
8099;DHT22;4092;47.876;9.372;2023-04-01T08:03:17;5.50;99.90
8099;DHT22;4092;47.876;9.372;2023-04-01T08:05:54;5.50;99.90
8099;DHT22;4092;47.876;9.372;2023-04-01T08:08:30;5.50;99.90
8099;DHT22;4092;47.876;9.372;2023-04-01T08:11:05;5.50;99.90
8099;DHT22;4092;47.876;9.372;2023-04-01T08:13:38;5.60;99.90
8099;DHT22;4092;47.876;9.372;2023-04-01T08:16:17;5.50;99.90
8099;DHT22;4092;47.876;9.372;2023-04-01T08:18:54;5.60;99.90
8099;DHT22;4092;47.876;9.372;2023-04-01T08:21:27;5.60;99.90
8099;DHT22;4092;47.876;9.372;2023-04-01T08:23:57;5.60;99.90
8099;DHT22;4092;47.876;9.372;2023-04-01T08:26:32;5.60;99.90
8099;DHT22;4092;47.876;9.372;2023-04-01T08:29:05;5.50;99.90
8099;DHT22;4092;47.876;9.372;2023-04-01T08:31:37;5.50;99.90
8099;DHT22;4092;47.876;9.372;2023-04-01T08:34:13;5.40;99.90
8099;DHT22;4092;47.876;9.372;2023-04-01T08:36:45;5.40;99.90
8099;DHT22;4092;47.876;9.372;2023-04-01T08:39:17;5.40;99.90
8099;DHT22;4092;47.876;9.372;2023-04-01T08:42:06;5.40;99.90
8099;DHT22;4092;47.876;9.372;2023-04-01T08:44:51;5.40;99.90
8099;DHT22;4092;47.876;9.372;2023-04-01T08:47:46;5.30;99.90
8099;DHT22;4092;47.876;9.372;2023-04-01T08:53:20;5.40;99.90
8099;DHT22;4092;47.876;9.372;2023-04-01T08:56:05;5.40;99.90
8099;DHT22;4092;47.876;9.372;2023-04-01T08:58:55;5.40;99.90
8099;DHT22;4092;47.876;9.372;2023-04-01T09:02:05;5.40;99.90
8099;DHT22;4092;47.876;9.372;2023-04-01T09:04:49;5.40;99.90
8099;DHT22;4092;47.876;9.372;2023-04-01T09:07:31;5.40;99.90
8099;DHT22;4092;47.876;9.372;2023-04-01T09:10:25;5.40;99.90
8099;DHT22;4092;47.876;9.372;2023-04-01T09:13:14;5.40;99.90
8099;DHT22;4092;47.876;9.372;2023-04-01T09:15:54;5.40;99.90
8099;DHT22;4092;47.876;9.372;2023-04-01T09:18:54;5.40;99.90
8099;DHT22;4092;47.876;9.372;2023-04-01T09:21:44;5.30;99.90
8099;DHT22;4092;47.876;9.372;2023-04-01T09:27:27;5.40;99.90
8099;DHT22;4092;47.876;9.372;2023-04-01T09:30:27;5.40;99.90
8099;DHT22;4092;47.876;9.372;2023-04-01T09:33:24;5.30;99.90
8099;DHT22;4092;47.876;9.372;2023-04-01T09:36:04;5.30;99.90
8099;DHT22;4092;47.876;9.372;2023-04-01T09:38:43;5.30;99.90
8099;DHT22;4092;47.876;9.372;2023-04-01T09:41:20;5.40;99.90
8099;DHT22;4092;47.876;9.372;2023-04-01T09:44:01;5.30;99.90
8099;DHT22;4092;47.876;9.372;2023-04-01T09:46:41;5.30;99.90
8099;DHT22;4092;47.876;9.372;2023-04-01T09:52:18;5.30;99.90
8099;DHT22;4092;47.876;9.372;2023-04-01T09:55:05;5.30;99.90
8099;DHT22;4092;47.876;9.372;2023-04-01T09:58:00;5.30;99.90
8099;DHT22;4092;47.876;9.372;2023-04-01T10:04:02;5.40;99.90
8099;DHT22;4092;47.876;9.372;2023-04-01T10:07:20;5.40;99.90
8099;DHT22;4092;47.876;9.372;2023-04-01T10:13:20;5.40;99.90
8099;DHT22;4092;47.876;9.372;2023-04-01T10:19:21;5.50;99.90
8099;DHT22;4092;47.876;9.372;2023-04-01T10:22:15;5.50;99.90
8099;DHT22;4092;47.876;9.372;2023-04-01T10:31:02;5.60;99.90
8099;DHT22;4092;47.876;9.372;2023-04-01T10:34:10;5.70;99.90
8099;DHT22;4092;47.876;9.372;2023-04-01T10:36:52;5.70;99.90
8099;DHT22;4092;47.876;9.372;2023-04-01T10:49:16;5.90;99.90
8099;DHT22;4092;47.876;9.372;2023-04-01T10:55:11;5.90;99.90
8099;DHT22;4092;47.876;9.372;2023-04-01T10:58:02;6.00;99.90
8099;DHT22;4092;47.876;9.372;2023-04-01T11:04:05;6.00;99.90
8099;DHT22;4092;47.876;9.372;2023-04-01T11:07:17;6.10;99.90
8099;DHT22;4092;47.876;9.372;2023-04-01T11:16:26;6.30;99.90
8099;DHT22;4092;47.876;9.372;2023-04-01T11:19:28;6.30;99.90
8099;DHT22;4092;47.876;9.372;2023-04-01T11:31:19;6.10;99.90
8099;DHT22;4092;47.876;9.372;2023-04-01T11:33:53;6.10;99.90
8099;DHT22;4092;47.876;9.372;2023-04-01T11:36:32;6.10;99.90
8099;DHT22;4092;47.876;9.372;2023-04-01T11:39:14;6.10;99.90
8099;DHT22;4092;47.876;9.372;2023-04-01T11:41:54;6.20;99.90
8099;DHT22;4092;47.876;9.372;2023-04-01T11:44:26;6.20;99.90
8099;DHT22;4092;47.876;9.372;2023-04-01T11:47:19;6.30;99.90
8099;DHT22;4092;47.876;9.372;2023-04-01T11:50:11;6.40;99.90
8099;DHT22;4092;47.876;9.372;2023-04-01T11:53:10;6.40;99.90
8099;DHT22;4092;47.876;9.372;2023-04-01T11:55:50;6.50;99.90
8099;DHT22;4092;47.876;9.372;2023-04-01T11:58:36;6.60;99.90
8099;DHT22;4092;47.876;9.372;2023-04-01T12:01:28;6.80;99.90
8099;DHT22;4092;47.876;9.372;2023-04-01T12:04:27;6.90;99.90
8099;DHT22;4092;47.876;9.372;2023-04-01T12:07:05;6.90;99.90
8099;DHT22;4092;47.876;9.372;2023-04-01T12:09:44;6.90;99.90
8099;DHT22;4092;47.876;9.372;2023-04-01T12:12:19;7.00;99.90
8099;DHT22;4092;47.876;9.372;2023-04-01T12:14:59;6.90;99.90
8099;DHT22;4092;47.876;9.372;2023-04-01T12:17:35;6.80;99.90
8099;DHT22;4092;47.876;9.372;2023-04-01T12:23:10;6.70;99.90
8099;DHT22;4092;47.876;9.372;2023-04-01T12:26:01;6.80;99.90
8099;DHT22;4092;47.876;9.372;2023-04-01T12:28:41;6.90;99.90
8099;DHT22;4092;47.876;9.372;2023-04-01T12:31:23;6.90;99.90
8099;DHT22;4092;47.876;9.372;2023-04-01T12:36:59;6.90;99.90
8099;DHT22;4092;47.876;9.372;2023-04-01T12:39:48;7.00;99.90
8099;DHT22;4092;47.876;9.372;2023-04-01T12:42:28;7.00;99.90
8099;DHT22;4092;47.876;9.372;2023-04-01T12:45:07;7.10;99.90
8099;DHT22;4092;47.876;9.372;2023-04-01T12:47:51;7.10;99.90
8099;DHT22;4092;47.876;9.372;2023-04-01T12:53:27;7.00;99.90
8099;DHT22;4092;47.876;9.372;2023-04-01T12:56:02;6.90;99.90
8099;DHT22;4092;47.876;9.372;2023-04-01T13:01:54;7.10;99.90
8099;DHT22;4092;47.876;9.372;2023-04-01T13:04:55;7.00;99.90
8099;DHT22;4092;47.876;9.372;2023-04-01T13:07:42;7.10;99.90
8099;DHT22;4092;47.876;9.372;2023-04-01T13:10:25;7.20;99.90
8099;DHT22;4092;47.876;9.372;2023-04-01T13:13:05;7.10;99.90
8099;DHT22;4092;47.876;9.372;2023-04-01T13:15:41;7.00;99.90
8099;DHT22;4092;47.876;9.372;2023-04-01T13:18:24;7.00;99.90
8099;DHT22;4092;47.876;9.372;2023-04-01T13:21:02;6.80;99.90
8099;DHT22;4092;47.876;9.372;2023-04-01T13:23:42;6.90;99.90
8099;DHT22;4092;47.876;9.372;2023-04-01T13:26:18;6.80;99.90
8099;DHT22;4092;47.876;9.372;2023-04-01T13:28:53;6.80;99.90
8099;DHT22;4092;47.876;9.372;2023-04-01T13:31:33;6.90;99.90
8099;DHT22;4092;47.876;9.372;2023-04-01T13:34:15;6.90;99.90
8099;DHT22;4092;47.876;9.372;2023-04-01T13:36:53;6.90;99.90
8099;DHT22;4092;47.876;9.372;2023-04-01T13:39:54;6.90;99.90
8099;DHT22;4092;47.876;9.372;2023-04-01T13:42:25;6.80;99.90
8099;DHT22;4092;47.876;9.372;2023-04-01T13:44:59;6.80;99.90
8099;DHT22;4092;47.876;9.372;2023-04-01T13:47:57;6.80;99.90
8099;DHT22;4092;47.876;9.372;2023-04-01T13:50:37;6.80;99.90
8099;DHT22;4092;47.876;9.372;2023-04-01T13:53:39;6.80;99.90
8099;DHT22;4092;47.876;9.372;2023-04-01T13:56:24;6.80;99.90
8099;DHT22;4092;47.876;9.372;2023-04-01T14:02:11;6.80;99.90
8099;DHT22;4092;47.876;9.372;2023-04-01T14:04:47;6.80;99.90
8099;DHT22;4092;47.876;9.372;2023-04-01T14:07:37;6.90;99.90
8099;DHT22;4092;47.876;9.372;2023-04-01T14:10:18;7.00;99.90
8099;DHT22;4092;47.876;9.372;2023-04-01T14:12:55;7.00;99.90
8099;DHT22;4092;47.876;9.372;2023-04-01T14:15:40;6.90;99.90
8099;DHT22;4092;47.876;9.372;2023-04-01T14:21:13;6.90;99.90
8099;DHT22;4092;47.876;9.372;2023-04-01T14:24:09;6.90;99.90
8099;DHT22;4092;47.876;9.372;2023-04-01T14:29:55;6.90;99.90
8099;DHT22;4092;47.876;9.372;2023-04-01T14:32:30;6.90;99.90
8099;DHT22;4092;47.876;9.372;2023-04-01T14:35:14;6.80;99.90
8099;DHT22;4092;47.876;9.372;2023-04-01T14:38:12;6.80;99.90
8099;DHT22;4092;47.876;9.372;2023-04-01T14:40:56;6.80;99.90
8099;DHT22;4092;47.876;9.372;2023-04-01T14:49:36;6.80;99.90
8099;DHT22;4092;47.876;9.372;2023-04-01T14:52:10;6.90;99.90
8099;DHT22;4092;47.876;9.372;2023-04-01T14:54:41;6.90;99.90
8099;DHT22;4092;47.876;9.372;2023-04-01T14:57:11;6.90;99.90
8099;DHT22;4092;47.876;9.372;2023-04-01T14:59:47;6.90;99.90
8099;DHT22;4092;47.876;9.372;2023-04-01T15:02:36;6.90;99.90
8099;DHT22;4092;47.876;9.372;2023-04-01T15:05:19;6.90;99.90
8099;DHT22;4092;47.876;9.372;2023-04-01T15:08:11;7.00;99.90
8099;DHT22;4092;47.876;9.372;2023-04-01T15:11:18;6.90;99.90
8099;DHT22;4092;47.876;9.372;2023-04-01T15:14:19;7.00;99.90
8099;DHT22;4092;47.876;9.372;2023-04-01T15:16:59;7.00;99.90
8099;DHT22;4092;47.876;9.372;2023-04-01T15:19:41;7.00;99.90
8099;DHT22;4092;47.876;9.372;2023-04-01T15:22:23;7.00;99.90
8099;DHT22;4092;47.876;9.372;2023-04-01T15:25:13;7.00;99.90
8099;DHT22;4092;47.876;9.372;2023-04-01T15:27:48;7.10;99.90
8099;DHT22;4092;47.876;9.372;2023-04-01T15:30:33;7.00;99.90
8099;DHT22;4092;47.876;9.372;2023-04-01T15:33:27;7.10;99.90
8099;DHT22;4092;47.876;9.372;2023-04-01T15:36:07;7.10;99.90
8099;DHT22;4092;47.876;9.372;2023-04-01T15:38:46;7.10;99.90
8099;DHT22;4092;47.876;9.372;2023-04-01T15:41:15;7.10;99.90
8099;DHT22;4092;47.876;9.372;2023-04-01T15:43:44;7.10;99.90
8099;DHT22;4092;47.876;9.372;2023-04-01T15:46:41;7.00;99.90
8099;DHT22;4092;47.876;9.372;2023-04-01T15:49:19;7.00;99.90
8099;DHT22;4092;47.876;9.372;2023-04-01T15:52:02;6.90;99.90
8099;DHT22;4092;47.876;9.372;2023-04-01T15:54:50;6.90;99.90
8099;DHT22;4092;47.876;9.372;2023-04-01T15:57:25;6.90;99.90
8099;DHT22;4092;47.876;9.372;2023-04-01T16:02:49;6.90;99.90
8099;DHT22;4092;47.876;9.372;2023-04-01T16:05:34;6.90;99.90
8099;DHT22;4092;47.876;9.372;2023-04-01T16:08:32;7.00;99.90
8099;DHT22;4092;47.876;9.372;2023-04-01T16:11:17;7.00;99.90
8099;DHT22;4092;47.876;9.372;2023-04-01T16:13:59;7.10;99.90
8099;DHT22;4092;47.876;9.372;2023-04-01T16:16:40;7.10;99.90
8099;DHT22;4092;47.876;9.372;2023-04-01T16:19:25;7.10;99.90
8099;DHT22;4092;47.876;9.372;2023-04-01T16:22:01;7.20;99.90
8099;DHT22;4092;47.876;9.372;2023-04-01T16:24:35;7.10;99.90
8099;DHT22;4092;47.876;9.372;2023-04-01T16:27:09;7.10;99.90
8099;DHT22;4092;47.876;9.372;2023-04-01T16:29:43;7.10;99.90
8099;DHT22;4092;47.876;9.372;2023-04-01T16:32:31;7.00;99.90
8099;DHT22;4092;47.876;9.372;2023-04-01T16:35:23;7.00;99.90
8099;DHT22;4092;47.876;9.372;2023-04-01T16:37:59;7.10;99.90
8099;DHT22;4092;47.876;9.372;2023-04-01T16:40:39;7.10;99.90
8099;DHT22;4092;47.876;9.372;2023-04-01T16:43:16;7.10;99.90
8099;DHT22;4092;47.876;9.372;2023-04-01T16:45:55;7.10;99.90
8099;DHT22;4092;47.876;9.372;2023-04-01T16:48:29;7.10;99.90
8099;DHT22;4092;47.876;9.372;2023-04-01T16:51:03;7.10;99.90
8099;DHT22;4092;47.876;9.372;2023-04-01T16:53:40;7.10;99.90
8099;DHT22;4092;47.876;9.372;2023-04-01T16:56:14;7.10;99.90
8099;DHT22;4092;47.876;9.372;2023-04-01T16:58:56;7.00;99.90
8099;DHT22;4092;47.876;9.372;2023-04-01T17:01:27;7.00;99.90
8099;DHT22;4092;47.876;9.372;2023-04-01T17:04:00;7.00;99.90
8099;DHT22;4092;47.876;9.372;2023-04-01T17:06:36;7.00;99.90
8099;DHT22;4092;47.876;9.372;2023-04-01T17:09:28;7.00;99.90
8099;DHT22;4092;47.876;9.372;2023-04-01T17:12:06;7.00;99.90
8099;DHT22;4092;47.876;9.372;2023-04-01T17:14:43;7.00;99.90
8099;DHT22;4092;47.876;9.372;2023-04-01T17:17:31;7.00;99.90
8099;DHT22;4092;47.876;9.372;2023-04-01T17:23:12;7.00;99.90
8099;DHT22;4092;47.876;9.372;2023-04-01T17:25:51;7.00;99.90
8099;DHT22;4092;47.876;9.372;2023-04-01T17:28:31;6.90;99.90
8099;DHT22;4092;47.876;9.372;2023-04-01T17:31:07;6.90;99.90
8099;DHT22;4092;47.876;9.372;2023-04-01T17:34:04;6.90;99.90
8099;DHT22;4092;47.876;9.372;2023-04-01T17:36:48;6.90;99.90
8099;DHT22;4092;47.876;9.372;2023-04-01T17:39:30;6.80;99.90
8099;DHT22;4092;47.876;9.372;2023-04-01T17:42:03;6.80;99.90
8099;DHT22;4092;47.876;9.372;2023-04-01T17:44:49;6.80;99.90
8099;DHT22;4092;47.876;9.372;2023-04-01T17:47:34;6.80;99.90
8099;DHT22;4092;47.876;9.372;2023-04-01T17:50:20;6.70;99.90
8099;DHT22;4092;47.876;9.372;2023-04-01T17:52:58;6.70;99.90
8099;DHT22;4092;47.876;9.372;2023-04-01T17:55:52;6.70;99.90
8099;DHT22;4092;47.876;9.372;2023-04-01T17:58:26;6.60;99.90
8099;DHT22;4092;47.876;9.372;2023-04-01T18:01:05;6.60;99.90
8099;DHT22;4092;47.876;9.372;2023-04-01T18:06:45;6.50;99.90
8099;DHT22;4092;47.876;9.372;2023-04-01T18:09:24;6.50;99.90
8099;DHT22;4092;47.876;9.372;2023-04-01T18:12:04;6.50;99.90
8099;DHT22;4092;47.876;9.372;2023-04-01T18:17:43;6.50;99.90
8099;DHT22;4092;47.876;9.372;2023-04-01T18:20:37;6.50;99.90
8099;DHT22;4092;47.876;9.372;2023-04-01T18:23:14;6.50;99.90
8099;DHT22;4092;47.876;9.372;2023-04-01T18:25:48;6.50;99.90
8099;DHT22;4092;47.876;9.372;2023-04-01T18:28:20;6.50;99.90
8099;DHT22;4092;47.876;9.372;2023-04-01T18:30:53;6.50;99.90
8099;DHT22;4092;47.876;9.372;2023-04-01T18:33:26;6.60;99.90
8099;DHT22;4092;47.876;9.372;2023-04-01T18:36:08;6.50;99.90
8099;DHT22;4092;47.876;9.372;2023-04-01T18:38:37;6.50;99.90
8099;DHT22;4092;47.876;9.372;2023-04-01T18:41:15;6.50;99.90
8099;DHT22;4092;47.876;9.372;2023-04-01T18:43:54;6.50;99.90
8099;DHT22;4092;47.876;9.372;2023-04-01T18:46:30;6.40;99.90
8099;DHT22;4092;47.876;9.372;2023-04-01T18:49:13;6.40;99.90
8099;DHT22;4092;47.876;9.372;2023-04-01T18:51:46;6.30;99.90
8099;DHT22;4092;47.876;9.372;2023-04-01T18:54:21;6.30;99.90
8099;DHT22;4092;47.876;9.372;2023-04-01T18:57:03;6.30;99.90
8099;DHT22;4092;47.876;9.372;2023-04-01T18:59:38;6.30;99.90
8099;DHT22;4092;47.876;9.372;2023-04-01T19:02:16;6.30;99.90
8099;DHT22;4092;47.876;9.372;2023-04-01T19:04:53;6.30;99.90
8099;DHT22;4092;47.876;9.372;2023-04-01T19:07:45;6.30;99.90